sensor_id;sensor_type;location;lat;lon;timestamp;temperature;humidity
29731;DHT22;16639;51.488;0.152;2022-08-19T00:01:57;20.10;99.90
29731;DHT22;16639;51.488;0.152;2022-08-19T00:04:31;20.10;99.90
29731;DHT22;16639;51.488;0.152;2022-08-19T00:07:24;20.70;99.90
29731;DHT22;16639;51.488;0.152;2022-08-19T00:09:52;20.10;99.90
29731;DHT22;16639;51.488;0.152;2022-08-19T00:12:22;20.10;99.90
29731;DHT22;16639;51.488;0.152;2022-08-19T00:14:51;20.20;99.90
29731;DHT22;16639;51.488;0.152;2022-08-19T00:17:21;20.10;99.90
29731;DHT22;16639;51.488;0.152;2022-08-19T00:19:49;20.20;99.90
29731;DHT22;16639;51.488;0.152;2022-08-19T00:22:17;20.20;99.90
29731;DHT22;16639;51.488;0.152;2022-08-19T00:24:46;20.20;99.90
29731;DHT22;16639;51.488;0.152;2022-08-19T00:27:17;20.30;99.90
29731;DHT22;16639;51.488;0.152;2022-08-19T00:29:53;20.20;99.90
29731;DHT22;16639;51.488;0.152;2022-08-19T00:32:21;20.30;99.90
29731;DHT22;16639;51.488;0.152;2022-08-19T00:34:50;20.30;99.90
29731;DHT22;16639;51.488;0.152;2022-08-19T00:37:20;20.30;99.90
29731;DHT22;16639;51.488;0.152;2022-08-19T00:39:50;20.30;99.90
29731;DHT22;16639;51.488;0.152;2022-08-19T00:42:21;20.30;99.90
29731;DHT22;16639;51.488;0.152;2022-08-19T00:44:48;20.10;99.90
29731;DHT22;16639;51.488;0.152;2022-08-19T00:47:17;20.30;99.90
29731;DHT22;16639;51.488;0.152;2022-08-19T00:49:49;20.30;99.90
29731;DHT22;16639;51.488;0.152;2022-08-19T00:52:25;20.30;99.90
29731;DHT22;16639;51.488;0.152;2022-08-19T00:54:59;20.30;99.90
29731;DHT22;16639;51.488;0.152;2022-08-19T00:57:33;20.30;99.90
29731;DHT22;16639;51.488;0.152;2022-08-19T01:00:05;20.30;99.90
29731;DHT22;16639;51.488;0.152;2022-08-19T01:02:35;20.30;99.90
29731;DHT22;16639;51.488;0.152;2022-08-19T01:05:10;20.30;99.90
29731;DHT22;16639;51.488;0.152;2022-08-19T01:07:40;20.20;99.90
29731;DHT22;16639;51.488;0.152;2022-08-19T01:10:12;20.20;99.90
29731;DHT22;16639;51.488;0.152;2022-08-19T01:12:42;20.20;99.90
29731;DHT22;16639;51.488;0.152;2022-08-19T01:15:12;20.20;99.90
29731;DHT22;16639;51.488;0.152;2022-08-19T01:17:42;20.20;99.90
29731;DHT22;16639;51.488;0.152;2022-08-19T01:20:17;20.20;99.90
29731;DHT22;16639;51.488;0.152;2022-08-19T01:22:57;20.10;99.90
29731;DHT22;16639;51.488;0.152;2022-08-19T01:25:32;20.10;99.90
29731;DHT22;16639;51.488;0.152;2022-08-19T01:28:00;20.10;99.90
29731;DHT22;16639;51.488;0.152;2022-08-19T01:30:36;20.10;99.90
29731;DHT22;16639;51.488;0.152;2022-08-19T01:33:04;20.10;99.90
29731;DHT22;16639;51.488;0.152;2022-08-19T01:35:35;20.20;99.90
29731;DHT22;16639;51.488;0.152;2022-08-19T01:38:06;20.20;99.90
29731;DHT22;16639;51.488;0.152;2022-08-19T01:40:40;20.10;99.90
29731;DHT22;16639;51.488;0.152;2022-08-19T01:43:09;20.20;99.90
29731;DHT22;16639;51.488;0.152;2022-08-19T01:45:37;20.10;99.90
29731;DHT22;16639;51.488;0.152;2022-08-19T01:48:08;20.20;99.90
29731;DHT22;16639;51.488;0.152;2022-08-19T01:50:37;20.20;99.90
29731;DHT22;16639;51.488;0.152;2022-08-19T01:53:07;20.20;99.90
29731;DHT22;16639;51.488;0.152;2022-08-19T01:55:38;20.20;99.90
29731;DHT22;16639;51.488;0.152;2022-08-19T01:58:12;20.10;99.90
29731;DHT22;16639;51.488;0.152;2022-08-19T02:00:40;20.20;99.90
29731;DHT22;16639;51.488;0.152;2022-08-19T02:03:08;20.20;99.90
29731;DHT22;16639;51.488;0.152;2022-08-19T02:05:38;20.20;99.90
29731;DHT22;16639;51.488;0.152;2022-08-19T02:08:09;20.20;99.90
29731;DHT22;16639;51.488;0.152;2022-08-19T02:10:43;20.20;99.90
29731;DHT22;16639;51.488;0.152;2022-08-19T02:13:11;20.20;99.90
29731;DHT22;16639;51.488;0.152;2022-08-19T02:15:39;20.10;99.90
29731;DHT22;16639;51.488;0.152;2022-08-19T02:18:07;20.10;99.90
29731;DHT22;16639;51.488;0.152;2022-08-19T02:20:36;20.00;99.90
29731;DHT22;16639;51.488;0.152;2022-08-19T02:23:05;20.10;99.90
29731;DHT22;16639;51.488;0.152;2022-08-19T02:25:40;20.00;99.90
29731;DHT22;16639;51.488;0.152;2022-08-19T02:28:09;20.00;99.90
29731;DHT22;16639;51.488;0.152;2022-08-19T02:30:41;20.00;99.90
29731;DHT22;16639;51.488;0.152;2022-08-19T02:33:12;20.00;99.90
29731;DHT22;16639;51.488;0.152;2022-08-19T02:35:45;19.90;99.90
29731;DHT22;16639;51.488;0.152;2022-08-19T02:38:15;19.90;99.90
29731;DHT22;16639;51.488;0.152;2022-08-19T02:41:19;19.90;99.90
29731;DHT22;16639;51.488;0.152;2022-08-19T02:43:50;19.90;99.90
29731;DHT22;16639;51.488;0.152;2022-08-19T02:46:38;19.90;99.90
29731;DHT22;16639;51.488;0.152;2022-08-19T02:49:07;19.90;99.90
29731;DHT22;16639;51.488;0.152;2022-08-19T02:51:38;20.00;99.90
29731;DHT22;16639;51.488;0.152;2022-08-19T02:54:07;20.00;99.90
29731;DHT22;16639;51.488;0.152;2022-08-19T02:56:37;20.00;99.90
29731;DHT22;16639;51.488;0.152;2022-08-19T02:59:06;20.50;99.90
29731;DHT22;16639;51.488;0.152;2022-08-19T03:01:40;19.90;99.90
29731;DHT22;16639;51.488;0.152;2022-08-19T03:04:15;20.00;99.90
29731;DHT22;16639;51.488;0.152;2022-08-19T03:06:45;20.00;99.90
29731;DHT22;16639;51.488;0.152;2022-08-19T03:09:13;20.00;99.90
29731;DHT22;16639;51.488;0.152;2022-08-19T03:11:41;20.00;99.90
29731;DHT22;16639;51.488;0.152;2022-08-19T03:14:12;20.00;99.90
29731;DHT22;16639;51.488;0.152;2022-08-19T03:16:46;20.10;99.90
29731;DHT22;16639;51.488;0.152;2022-08-19T03:19:16;20.10;99.90
29731;DHT22;16639;51.488;0.152;2022-08-19T03:21:44;20.10;99.90
29731;DHT22;16639;51.488;0.152;2022-08-19T03:24:12;20.10;99.90
29731;DHT22;16639;51.488;0.152;2022-08-19T03:26:51;20.00;99.90
29731;DHT22;16639;51.488;0.152;2022-08-19T03:29:20;20.10;99.90
29731;DHT22;16639;51.488;0.152;2022-08-19T03:32:02;20.10;99.90
29731;DHT22;16639;51.488;0.152;2022-08-19T03:34:33;20.10;99.90
29731;DHT22;16639;51.488;0.152;2022-08-19T03:37:08;20.10;99.90
29731;DHT22;16639;51.488;0.152;2022-08-19T03:39:38;20.40;99.90
29731;DHT22;16639;51.488;0.152;2022-08-19T03:42:07;20.40;99.90
29731;DHT22;16639;51.488;0.152;2022-08-19T03:44:58;20.10;99.90
29731;DHT22;16639;51.488;0.152;2022-08-19T03:47:26;20.20;99.90
29731;DHT22;16639;51.488;0.152;2022-08-19T03:49:53;20.20;99.90
29731;DHT22;16639;51.488;0.152;2022-08-19T03:52:21;20.20;99.90
29731;DHT22;16639;51.488;0.152;2022-08-19T03:54:49;20.00;99.90
29731;DHT22;16639;51.488;0.152;2022-08-19T03:57:17;20.10;99.90
29731;DHT22;16639;51.488;0.152;2022-08-19T03:59:46;20.10;99.90
29731;DHT22;16639;51.488;0.152;2022-08-19T04:02:13;20.20;99.90
29731;DHT22;16639;51.488;0.152;2022-08-19T04:04:44;20.10;99.90
29731;DHT22;16639;51.488;0.152;2022-08-19T04:07:13;20.00;99.90
29731;DHT22;16639;51.488;0.152;2022-08-19T04:09:45;20.00;99.90
29731;DHT22;16639;51.488;0.152;2022-08-19T04:12:13;20.00;99.90
29731;DHT22;16639;51.488;0.152;2022-08-19T04:14:42;20.00;99.90
29731;DHT22;16639;51.488;0.152;2022-08-19T04:17:11;20.00;99.90
29731;DHT22;16639;51.488;0.152;2022-08-19T04:19:40;20.00;99.90
29731;DHT22;16639;51.488;0.152;2022-08-19T04:22:07;20.00;99.90
29731;DHT22;16639;51.488;0.152;2022-08-19T04:24:35;20.10;99.90
29731;DHT22;16639;51.488;0.152;2022-08-19T04:27:03;20.10;99.90
29731;DHT22;16639;51.488;0.152;2022-08-19T04:29:33;20.00;99.90
29731;DHT22;16639;51.488;0.152;2022-08-19T04:32:00;20.00;99.90
29731;DHT22;16639;51.488;0.152;2022-08-19T04:34:37;20.00;99.90
29731;DHT22;16639;51.488;0.152;2022-08-19T04:37:26;19.80;99.90
29731;DHT22;16639;51.488;0.152;2022-08-19T04:40:01;20.00;99.90
29731;DHT22;16639;51.488;0.152;2022-08-19T04:42:47;20.00;99.90
29731;DHT22;16639;51.488;0.152;2022-08-19T04:45:15;20.00;99.90
29731;DHT22;16639;51.488;0.152;2022-08-19T04:47:44;19.90;99.90
29731;DHT22;16639;51.488;0.152;2022-08-19T04:50:25;19.90;99.90
29731;DHT22;16639;51.488;0.152;2022-08-19T04:52:54;19.90;99.90
29731;DHT22;16639;51.488;0.152;2022-08-19T04:55:24;19.90;99.90
29731;DHT22;16639;51.488;0.152;2022-08-19T04:57:54;19.90;99.90
29731;DHT22;16639;51.488;0.152;2022-08-19T05:00:24;19.90;99.90
29731;DHT22;16639;51.488;0.152;2022-08-19T05:02:51;19.90;99.90
29731;DHT22;16639;51.488;0.152;2022-08-19T05:05:19;19.90;99.90
29731;DHT22;16639;51.488;0.152;2022-08-19T05:07:49;19.90;99.90
29731;DHT22;16639;51.488;0.152;2022-08-19T05:10:21;19.90;99.90
29731;DHT22;16639;51.488;0.152;2022-08-19T05:12:50;19.90;99.90
29731;DHT22;16639;51.488;0.152;2022-08-19T05:15:20;19.80;99.90
29731;DHT22;16639;51.488;0.152;2022-08-19T05:17:49;19.90;99.90
29731;DHT22;16639;51.488;0.152;2022-08-19T05:20:38;19.90;99.90
29731;DHT22;16639;51.488;0.152;2022-08-19T05:23:24;19.90;99.90
29731;DHT22;16639;51.488;0.152;2022-08-19T05:25:52;19.90;99.90
29731;DHT22;16639;51.488;0.152;2022-08-19T05:28:20;19.90;99.90
29731;DHT22;16639;51.488;0.152;2022-08-19T05:30:48;19.90;99.90
29731;DHT22;16639;51.488;0.152;2022-08-19T05:33:18;19.90;99.90
29731;DHT22;16639;51.488;0.152;2022-08-19T05:35:47;19.90;99.90
29731;DHT22;16639;51.488;0.152;2022-08-19T05:38:17;19.90;99.90
29731;DHT22;16639;51.488;0.152;2022-08-19T05:40:44;19.80;99.90
29731;DHT22;16639;51.488;0.152;2022-08-19T05:43:14;19.80;99.90
29731;DHT22;16639;51.488;0.152;2022-08-19T05:45:45;19.80;99.90
29731;DHT22;16639;51.488;0.152;2022-08-19T05:48:14;19.80;99.90
29731;DHT22;16639;51.488;0.152;2022-08-19T05:50:42;19.70;99.90
29731;DHT22;16639;51.488;0.152;2022-08-19T05:53:10;19.80;99.90
29731;DHT22;16639;51.488;0.152;2022-08-19T05:55:37;19.80;99.90
29731;DHT22;16639;51.488;0.152;2022-08-19T05:58:05;19.80;99.90
29731;DHT22;16639;51.488;0.152;2022-08-19T06:00:36;19.70;99.90
29731;DHT22;16639;51.488;0.152;2022-08-19T06:03:04;19.70;99.90
29731;DHT22;16639;51.488;0.152;2022-08-19T06:05:48;19.80;99.90
29731;DHT22;16639;51.488;0.152;2022-08-19T06:08:19;19.70;99.90
29731;DHT22;16639;51.488;0.152;2022-08-19T06:14:08;19.80;99.90
29731;DHT22;16639;51.488;0.152;2022-08-19T06:16:44;19.80;99.90
29731;DHT22;16639;51.488;0.152;2022-08-19T06:19:14;19.80;99.90
29731;DHT22;16639;51.488;0.152;2022-08-19T06:21:44;19.80;99.90
29731;DHT22;16639;51.488;0.152;2022-08-19T06:24:17;19.80;99.90
29731;DHT22;16639;51.488;0.152;2022-08-19T06:26:46;19.80;99.90
29731;DHT22;16639;51.488;0.152;2022-08-19T06:29:18;19.70;99.90
29731;DHT22;16639;51.488;0.152;2022-08-19T06:31:52;19.70;99.90
29731;DHT22;16639;51.488;0.152;2022-08-19T06:34:20;19.70;99.90
29731;DHT22;16639;51.488;0.152;2022-08-19T06:36:51;19.70;99.90
29731;DHT22;16639;51.488;0.152;2022-08-19T06:39:22;19.70;99.90
29731;DHT22;16639;51.488;0.152;2022-08-19T06:41:52;19.80;99.90
29731;DHT22;16639;51.488;0.152;2022-08-19T06:44:27;19.80;99.90
29731;DHT22;16639;51.488;0.152;2022-08-19T06:46:58;19.70;99.90
29731;DHT22;16639;51.488;0.152;2022-08-19T06:49:42;19.80;99.90
29731;DHT22;16639;51.488;0.152;2022-08-19T06:52:11;19.80;99.90
29731;DHT22;16639;51.488;0.152;2022-08-19T06:54:41;19.80;99.90
29731;DHT22;16639;51.488;0.152;2022-08-19T06:57:23;19.80;99.90
29731;DHT22;16639;51.488;0.152;2022-08-19T06:59:51;19.90;99.90
29731;DHT22;16639;51.488;0.152;2022-08-19T07:02:19;19.90;99.90
29731;DHT22;16639;51.488;0.152;2022-08-19T07:04:48;19.90;99.90
29731;DHT22;16639;51.488;0.152;2022-08-19T07:07:21;19.90;99.90
29731;DHT22;16639;51.488;0.152;2022-08-19T07:09:50;19.90;99.90
29731;DHT22;16639;51.488;0.152;2022-08-19T07:12:29;19.90;99.90
29731;DHT22;16639;51.488;0.152;2022-08-19T07:15:04;19.50;99.90
29731;DHT22;16639;51.488;0.152;2022-08-19T07:17:32;19.90;99.90
29731;DHT22;16639;51.488;0.152;2022-08-19T07:20:06;19.80;99.90
29731;DHT22;16639;51.488;0.152;2022-08-19T07:22:37;19.80;99.90
29731;DHT22;16639;51.488;0.152;2022-08-19T07:25:07;19.80;99.90
29731;DHT22;16639;51.488;0.152;2022-08-19T07:27:35;19.80;99.90
29731;DHT22;16639;51.488;0.152;2022-08-19T07:30:03;19.80;99.90
29731;DHT22;16639;51.488;0.152;2022-08-19T07:32:34;19.80;99.90
29731;DHT22;16639;51.488;0.152;2022-08-19T07:35:01;19.90;99.90
29731;DHT22;16639;51.488;0.152;2022-08-19T07:37:32;19.90;99.90
29731;DHT22;16639;51.488;0.152;2022-08-19T07:40:01;20.10;99.90
29731;DHT22;16639;51.488;0.152;2022-08-19T07:42:28;19.80;99.90
29731;DHT22;16639;51.488;0.152;2022-08-19T07:44:58;19.80;99.90
29731;DHT22;16639;51.488;0.152;2022-08-19T07:47:26;19.80;99.90
29731;DHT22;16639;51.488;0.152;2022-08-19T07:50:14;19.70;99.90
29731;DHT22;16639;51.488;0.152;2022-08-19T07:52:42;19.80;99.90
29731;DHT22;16639;51.488;0.152;2022-08-19T07:55:19;19.80;99.90
29731;DHT22;16639;51.488;0.152;2022-08-19T07:58:07;19.80;99.90
29731;DHT22;16639;51.488;0.152;2022-08-19T08:00:35;20.20;99.90
29731;DHT22;16639;51.488;0.152;2022-08-19T08:03:03;19.80;99.90
29731;DHT22;16639;51.488;0.152;2022-08-19T08:05:31;19.90;99.90
29731;DHT22;16639;51.488;0.152;2022-08-19T08:08:16;20.00;99.90
29731;DHT22;16639;51.488;0.152;2022-08-19T08:11:04;20.00;99.90
29731;DHT22;16639;51.488;0.152;2022-08-19T08:13:35;20.10;99.90
29731;DHT22;16639;51.488;0.152;2022-08-19T08:16:05;20.10;99.90
29731;DHT22;16639;51.488;0.152;2022-08-19T08:18:40;20.20;99.90
29731;DHT22;16639;51.488;0.152;2022-08-19T08:21:16;20.20;99.90
29731;DHT22;16639;51.488;0.152;2022-08-19T08:23:44;20.10;99.90
29731;DHT22;16639;51.488;0.152;2022-08-19T08:26:11;19.60;99.90
29731;DHT22;16639;51.488;0.152;2022-08-19T08:28:42;20.20;99.90
29731;DHT22;16639;51.488;0.152;2022-08-19T08:31:14;20.20;99.90
29731;DHT22;16639;51.488;0.152;2022-08-19T08:33:41;20.30;99.90
29731;DHT22;16639;51.488;0.152;2022-08-19T08:36:10;20.40;99.90
29731;DHT22;16639;51.488;0.152;2022-08-19T08:38:38;20.30;99.90
29731;DHT22;16639;51.488;0.152;2022-08-19T08:43:57;20.40;99.90
29731;DHT22;16639;51.488;0.152;2022-08-19T08:46:32;20.40;99.90
29731;DHT22;16639;51.488;0.152;2022-08-19T08:55:03;20.50;99.90
29731;DHT22;16639;51.488;0.152;2022-08-19T09:00:32;20.50;99.90
29731;DHT22;16639;51.488;0.152;2022-08-19T09:03:02;20.50;99.90
29731;DHT22;16639;51.488;0.152;2022-08-19T09:05:46;20.60;99.90
29731;DHT22;16639;51.488;0.152;2022-08-19T09:10:56;20.60;99.90
29731;DHT22;16639;51.488;0.152;2022-08-19T09:16:03;20.50;99.90
29731;DHT22;16639;51.488;0.152;2022-08-19T09:18:52;20.50;99.90
29731;DHT22;16639;51.488;0.152;2022-08-19T09:21:21;20.40;99.90
29731;DHT22;16639;51.488;0.152;2022-08-19T09:23:59;20.70;99.90
29731;DHT22;16639;51.488;0.152;2022-08-19T09:26:30;20.50;99.90
29731;DHT22;16639;51.488;0.152;2022-08-19T09:29:14;20.40;99.90
29731;DHT22;16639;51.488;0.152;2022-08-19T09:31:43;20.40;99.90
29731;DHT22;16639;51.488;0.152;2022-08-19T09:34:11;20.40;99.90
29731;DHT22;16639;51.488;0.152;2022-08-19T09:36:49;20.50;99.90
29731;DHT22;16639;51.488;0.152;2022-08-19T09:39:21;20.50;99.90
29731;DHT22;16639;51.488;0.152;2022-08-19T09:41:49;20.50;99.90
29731;DHT22;16639;51.488;0.152;2022-08-19T09:44:17;20.60;99.90
29731;DHT22;16639;51.488;0.152;2022-08-19T09:46:48;20.60;99.90
29731;DHT22;16639;51.488;0.152;2022-08-19T09:49:17;20.60;99.90
29731;DHT22;16639;51.488;0.152;2022-08-19T09:51:50;20.70;99.90
29731;DHT22;16639;51.488;0.152;2022-08-19T09:54:19;20.80;99.90
29731;DHT22;16639;51.488;0.152;2022-08-19T09:56:55;20.80;99.90
29731;DHT22;16639;51.488;0.152;2022-08-19T09:59:22;20.90;99.90
29731;DHT22;16639;51.488;0.152;2022-08-19T10:01:51;21.00;99.90
29731;DHT22;16639;51.488;0.152;2022-08-19T10:04:19;21.10;99.90
29731;DHT22;16639;51.488;0.152;2022-08-19T10:06:50;21.10;99.90
29731;DHT22;16639;51.488;0.152;2022-08-19T10:09:21;21.20;99.90
29731;DHT22;16639;51.488;0.152;2022-08-19T10:12:02;21.10;99.90
29731;DHT22;16639;51.488;0.152;2022-08-19T10:14:30;21.20;99.90
29731;DHT22;16639;51.488;0.152;2022-08-19T10:16:58;21.20;99.90
29731;DHT22;16639;51.488;0.152;2022-08-19T10:19:44;21.20;99.90
29731;DHT22;16639;51.488;0.152;2022-08-19T10:22:22;21.20;99.90
29731;DHT22;16639;51.488;0.152;2022-08-19T10:24:52;21.30;99.90
29731;DHT22;16639;51.488;0.152;2022-08-19T10:27:20;21.30;99.90
29731;DHT22;16639;51.488;0.152;2022-08-19T10:29:49;21.40;99.90
29731;DHT22;16639;51.488;0.152;2022-08-19T10:32:16;21.50;99.90
29731;DHT22;16639;51.488;0.152;2022-08-19T10:34:44;21.10;99.90
29731;DHT22;16639;51.488;0.152;2022-08-19T10:37:16;21.50;99.90
29731;DHT22;16639;51.488;0.152;2022-08-19T10:39:55;21.60;99.90
29731;DHT22;16639;51.488;0.152;2022-08-19T10:42:22;21.70;99.90
29731;DHT22;16639;51.488;0.152;2022-08-19T10:44:50;21.70;99.90
29731;DHT22;16639;51.488;0.152;2022-08-19T10:47:18;21.70;99.90
29731;DHT22;16639;51.488;0.152;2022-08-19T10:49:53;21.70;99.90
29731;DHT22;16639;51.488;0.152;2022-08-19T10:52:42;21.70;99.90
29731;DHT22;16639;51.488;0.152;2022-08-19T10:55:21;21.70;99.90
29731;DHT22;16639;51.488;0.152;2022-08-19T10:58:16;21.80;99.90
29731;DHT22;16639;51.488;0.152;2022-08-19T11:00:51;21.90;99.90
29731;DHT22;16639;51.488;0.152;2022-08-19T11:03:20;22.00;99.90
29731;DHT22;16639;51.488;0.152;2022-08-19T11:06:02;22.10;99.90
29731;DHT22;16639;51.488;0.152;2022-08-19T11:08:30;22.20;99.90
29731;DHT22;16639;51.488;0.152;2022-08-19T11:11:00;22.30;99.90
29731;DHT22;16639;51.488;0.152;2022-08-19T11:13:31;22.30;99.90
29731;DHT22;16639;51.488;0.152;2022-08-19T11:16:05;22.40;99.90
29731;DHT22;16639;51.488;0.152;2022-08-19T11:18:39;22.50;99.90
29731;DHT22;16639;51.488;0.152;2022-08-19T11:21:15;22.50;99.90
29731;DHT22;16639;51.488;0.152;2022-08-19T11:23:50;22.50;99.90
29731;DHT22;16639;51.488;0.152;2022-08-19T11:26:20;22.60;99.90
29731;DHT22;16639;51.488;0.152;2022-08-19T11:28:49;22.60;99.90
29731;DHT22;16639;51.488;0.152;2022-08-19T11:31:25;22.50;99.90
29731;DHT22;16639;51.488;0.152;2022-08-19T11:34:00;22.50;99.90
29731;DHT22;16639;51.488;0.152;2022-08-19T11:36:29;22.60;99.90
29731;DHT22;16639;51.488;0.152;2022-08-19T11:38:58;22.70;99.90
29731;DHT22;16639;51.488;0.152;2022-08-19T11:41:26;22.90;99.90
29731;DHT22;16639;51.488;0.152;2022-08-19T11:43:54;23.00;99.90
29731;DHT22;16639;51.488;0.152;2022-08-19T11:46:26;23.10;99.90
29731;DHT22;16639;51.488;0.152;2022-08-19T11:48:58;23.20;99.90
29731;DHT22;16639;51.488;0.152;2022-08-19T11:51:28;23.10;99.90
29731;DHT22;16639;51.488;0.152;2022-08-19T11:53:58;23.10;99.90
29731;DHT22;16639;51.488;0.152;2022-08-19T11:56:27;23.00;99.90
29731;DHT22;16639;51.488;0.152;2022-08-19T11:58:55;23.00;99.90
29731;DHT22;16639;51.488;0.152;2022-08-19T12:01:25;23.00;99.90
29731;DHT22;16639;51.488;0.152;2022-08-19T12:03:54;22.90;99.90
29731;DHT22;16639;51.488;0.152;2022-08-19T12:06:25;22.80;99.90
29731;DHT22;16639;51.488;0.152;2022-08-19T12:08:58;22.80;99.90
29731;DHT22;16639;51.488;0.152;2022-08-19T12:11:27;22.90;99.90
29731;DHT22;16639;51.488;0.152;2022-08-19T12:14:03;23.00;99.90
29731;DHT22;16639;51.488;0.152;2022-08-19T12:16:31;22.90;99.90
29731;DHT22;16639;51.488;0.152;2022-08-19T12:19:00;22.80;99.90
29731;DHT22;16639;51.488;0.152;2022-08-19T12:21:33;22.80;99.90
29731;DHT22;16639;51.488;0.152;2022-08-19T12:24:03;22.80;99.90
29731;DHT22;16639;51.488;0.152;2022-08-19T12:26:33;22.70;99.90
29731;DHT22;16639;51.488;0.152;2022-08-19T12:29:02;22.70;99.90
29731;DHT22;16639;51.488;0.152;2022-08-19T12:31:31;22.70;99.90
29731;DHT22;16639;51.488;0.152;2022-08-19T12:33:59;22.70;99.90
29731;DHT22;16639;51.488;0.152;2022-08-19T12:36:27;22.80;99.90
29731;DHT22;16639;51.488;0.152;2022-08-19T12:38:58;22.50;99.90
29731;DHT22;16639;51.488;0.152;2022-08-19T12:41:26;22.90;99.90
29731;DHT22;16639;51.488;0.152;2022-08-19T12:43:54;23.00;99.90
29731;DHT22;16639;51.488;0.152;2022-08-19T12:46:24;23.00;99.90
29731;DHT22;16639;51.488;0.152;2022-08-19T12:48:52;23.10;99.90
29731;DHT22;16639;51.488;0.152;2022-08-19T12:51:22;23.10;99.90
29731;DHT22;16639;51.488;0.152;2022-08-19T12:53:50;23.20;99.90
29731;DHT22;16639;51.488;0.152;2022-08-19T12:56:18;23.10;99.90
29731;DHT22;16639;51.488;0.152;2022-08-19T12:58:49;23.00;99.90
29731;DHT22;16639;51.488;0.152;2022-08-19T13:01:19;23.00;99.90
29731;DHT22;16639;51.488;0.152;2022-08-19T13:03:50;22.90;99.90
29731;DHT22;16639;51.488;0.152;2022-08-19T13:06:20;22.90;99.90
29731;DHT22;16639;51.488;0.152;2022-08-19T13:08:47;23.00;99.90
29731;DHT22;16639;51.488;0.152;2022-08-19T13:11:17;23.10;99.90
29731;DHT22;16639;51.488;0.152;2022-08-19T13:13:47;23.30;99.90
29731;DHT22;16639;51.488;0.152;2022-08-19T13:16:15;23.40;99.90
29731;DHT22;16639;51.488;0.152;2022-08-19T13:18:45;23.50;99.90
29731;DHT22;16639;51.488;0.152;2022-08-19T13:21:17;23.50;99.90
29731;DHT22;16639;51.488;0.152;2022-08-19T13:23:49;23.60;99.90
29731;DHT22;16639;51.488;0.152;2022-08-19T13:26:17;23.70;99.90
29731;DHT22;16639;51.488;0.152;2022-08-19T13:28:45;23.60;99.90
29731;DHT22;16639;51.488;0.152;2022-08-19T13:31:40;23.70;99.90
29731;DHT22;16639;51.488;0.152;2022-08-19T13:34:32;23.60;99.90
29731;DHT22;16639;51.488;0.152;2022-08-19T13:37:04;23.70;99.90
29731;DHT22;16639;51.488;0.152;2022-08-19T13:39:33;23.70;99.90
29731;DHT22;16639;51.488;0.152;2022-08-19T13:42:04;23.60;99.90
29731;DHT22;16639;51.488;0.152;2022-08-19T13:44:33;23.50;99.90
29731;DHT22;16639;51.488;0.152;2022-08-19T13:47:04;23.50;99.90
29731;DHT22;16639;51.488;0.152;2022-08-19T13:49:35;23.60;99.90
29731;DHT22;16639;51.488;0.152;2022-08-19T13:52:04;23.60;99.90
29731;DHT22;16639;51.488;0.152;2022-08-19T13:54:32;24.50;99.90
29731;DHT22;16639;51.488;0.152;2022-08-19T13:56:59;23.50;99.90
29731;DHT22;16639;51.488;0.152;2022-08-19T13:59:27;23.50;99.90
29731;DHT22;16639;51.488;0.152;2022-08-19T14:01:58;23.50;99.90
29731;DHT22;16639;51.488;0.152;2022-08-19T14:04:26;23.20;99.90
29731;DHT22;16639;51.488;0.152;2022-08-19T14:06:54;23.30;99.90
29731;DHT22;16639;51.488;0.152;2022-08-19T14:09:22;23.20;99.90
29731;DHT22;16639;51.488;0.152;2022-08-19T14:11:50;23.20;99.90
29731;DHT22;16639;51.488;0.152;2022-08-19T14:14:18;23.10;99.90
29731;DHT22;16639;51.488;0.152;2022-08-19T14:16:46;23.10;99.90
29731;DHT22;16639;51.488;0.152;2022-08-19T14:19:13;23.10;99.90
29731;DHT22;16639;51.488;0.152;2022-08-19T14:21:41;23.10;98.60
29731;DHT22;16639;51.488;0.152;2022-08-19T14:24:09;23.00;99.00
29731;DHT22;16639;51.488;0.152;2022-08-19T14:26:36;23.10;98.80
29731;DHT22;16639;51.488;0.152;2022-08-19T14:29:03;23.00;98.30
29731;DHT22;16639;51.488;0.152;2022-08-19T14:31:31;23.00;99.30
29731;DHT22;16639;51.488;0.152;2022-08-19T14:33:58;23.00;99.00
29731;DHT22;16639;51.488;0.152;2022-08-19T14:36:29;23.00;97.00
29731;DHT22;16639;51.488;0.152;2022-08-19T14:39:04;22.60;97.70
29731;DHT22;16639;51.488;0.152;2022-08-19T14:41:32;23.00;96.90
29731;DHT22;16639;51.488;0.152;2022-08-19T14:44:00;23.00;95.40
29731;DHT22;16639;51.488;0.152;2022-08-19T14:46:28;23.00;94.90
29731;DHT22;16639;51.488;0.152;2022-08-19T14:48:56;22.90;94.10
29731;DHT22;16639;51.488;0.152;2022-08-19T14:51:27;23.00;93.80
29731;DHT22;16639;51.488;0.152;2022-08-19T14:53:55;22.90;94.30
29731;DHT22;16639;51.488;0.152;2022-08-19T14:56:26;23.00;94.70
29731;DHT22;16639;51.488;0.152;2022-08-19T14:58:56;23.00;93.20
29731;DHT22;16639;51.488;0.152;2022-08-19T15:01:26;23.00;92.30
29731;DHT22;16639;51.488;0.152;2022-08-19T15:03:54;23.00;90.70
29731;DHT22;16639;51.488;0.152;2022-08-19T15:06:23;23.00;90.80
29731;DHT22;16639;51.488;0.152;2022-08-19T15:08:51;23.00;92.50
29731;DHT22;16639;51.488;0.152;2022-08-19T15:11:25;23.00;91.70
29731;DHT22;16639;51.488;0.152;2022-08-19T15:13:58;23.50;88.70
29731;DHT22;16639;51.488;0.152;2022-08-19T15:16:26;23.00;87.60
29731;DHT22;16639;51.488;0.152;2022-08-19T15:18:56;23.00;86.20
29731;DHT22;16639;51.488;0.152;2022-08-19T15:21:24;23.00;82.70
29731;DHT22;16639;51.488;0.152;2022-08-19T15:23:55;23.10;81.30
29731;DHT22;16639;51.488;0.152;2022-08-19T15:26:24;23.10;80.20
29731;DHT22;16639;51.488;0.152;2022-08-19T15:28:54;23.00;81.90
29731;DHT22;16639;51.488;0.152;2022-08-19T15:31:22;23.10;78.90
29731;DHT22;16639;51.488;0.152;2022-08-19T15:33:58;23.10;78.10
29731;DHT22;16639;51.488;0.152;2022-08-19T15:36:26;23.10;79.70
29731;DHT22;16639;51.488;0.152;2022-08-19T15:38:57;23.10;80.10
29731;DHT22;16639;51.488;0.152;2022-08-19T15:41:27;23.30;79.30
29731;DHT22;16639;51.488;0.152;2022-08-19T15:44:04;23.10;78.80
29731;DHT22;16639;51.488;0.152;2022-08-19T15:46:36;23.10;82.80
29731;DHT22;16639;51.488;0.152;2022-08-19T15:49:06;23.10;80.40
29731;DHT22;16639;51.488;0.152;2022-08-19T15:51:35;23.20;80.90
29731;DHT22;16639;51.488;0.152;2022-08-19T15:54:06;23.20;81.60
29731;DHT22;16639;51.488;0.152;2022-08-19T15:56:37;23.20;80.50
29731;DHT22;16639;51.488;0.152;2022-08-19T15:59:24;23.20;79.70
29731;DHT22;16639;51.488;0.152;2022-08-19T16:02:15;23.10;79.60
29731;DHT22;16639;51.488;0.152;2022-08-19T16:05:16;23.10;79.40
29731;DHT22;16639;51.488;0.152;2022-08-19T16:08:04;23.10;80.80
29731;DHT22;16639;51.488;0.152;2022-08-19T16:10:32;23.10;81.40
29731;DHT22;16639;51.488;0.152;2022-08-19T16:12:59;23.10;81.90
29731;DHT22;16639;51.488;0.152;2022-08-19T16:15:28;23.10;80.10
29731;DHT22;16639;51.488;0.152;2022-08-19T16:17:57;23.10;80.10